sensor_id;sensor_type;location;lat;lon;timestamp;P1;durP1;ratioP1;P2;durP2;ratioP2
65583;SDS011;62116;43.582;1.470;2023-01-16T00:01:45;6.85;;;1.63;;
65583;SDS011;62116;43.582;1.470;2023-01-16T00:04:11;5.55;;;1.40;;
65583;SDS011;62116;43.582;1.470;2023-01-16T00:06:36;4.80;;;1.35;;
65583;SDS011;62116;43.582;1.470;2023-01-16T00:09:02;5.18;;;1.65;;
65583;SDS011;62116;43.582;1.470;2023-01-16T00:11:28;6.88;;;1.40;;
65583;SDS011;62116;43.582;1.470;2023-01-16T00:13:54;6.63;;;1.20;;
65583;SDS011;62116;43.582;1.470;2023-01-16T00:16:20;7.05;;;1.73;;
65583;SDS011;62116;43.582;1.470;2023-01-16T00:18:46;6.35;;;1.92;;
65583;SDS011;62116;43.582;1.470;2023-01-16T00:21:11;9.48;;;2.42;;
65583;SDS011;62116;43.582;1.470;2023-01-16T00:23:37;6.53;;;2.30;;
65583;SDS011;62116;43.582;1.470;2023-01-16T00:26:09;9.85;;;2.60;;
65583;SDS011;62116;43.582;1.470;2023-01-16T00:28:35;7.70;;;2.42;;
65583;SDS011;62116;43.582;1.470;2023-01-16T00:31:03;9.00;;;2.78;;
65583;SDS011;62116;43.582;1.470;2023-01-16T00:33:31;7.32;;;2.40;;
65583;SDS011;62116;43.582;1.470;2023-01-16T00:35:58;8.05;;;2.72;;
65583;SDS011;62116;43.582;1.470;2023-01-16T00:38:24;10.38;;;2.22;;
65583;SDS011;62116;43.582;1.470;2023-01-16T00:40:49;9.43;;;2.50;;
65583;SDS011;62116;43.582;1.470;2023-01-16T00:43:15;9.40;;;2.10;;
65583;SDS011;62116;43.582;1.470;2023-01-16T00:45:40;9.70;;;2.33;;
65583;SDS011;62116;43.582;1.470;2023-01-16T00:48:06;8.15;;;2.08;;
65583;SDS011;62116;43.582;1.470;2023-01-16T00:50:31;6.28;;;1.77;;
65583;SDS011;62116;43.582;1.470;2023-01-16T00:52:57;5.95;;;1.92;;
65583;SDS011;62116;43.582;1.470;2023-01-16T00:55:23;5.78;;;1.98;;
65583;SDS011;62116;43.582;1.470;2023-01-16T00:57:49;9.57;;;1.85;;
65583;SDS011;62116;43.582;1.470;2023-01-16T01:00:14;7.28;;;2.00;;
65583;SDS011;62116;43.582;1.470;2023-01-16T01:02:42;9.20;;;2.13;;
65583;SDS011;62116;43.582;1.470;2023-01-16T01:05:08;5.32;;;2.08;;
65583;SDS011;62116;43.582;1.470;2023-01-16T01:07:33;6.40;;;1.90;;
65583;SDS011;62116;43.582;1.470;2023-01-16T01:09:59;5.57;;;2.10;;
65583;SDS011;62116;43.582;1.470;2023-01-16T01:12:24;8.50;;;2.42;;
65583;SDS011;62116;43.582;1.470;2023-01-16T01:14:50;7.57;;;1.92;;
65583;SDS011;62116;43.582;1.470;2023-01-16T01:17:15;6.32;;;2.00;;
65583;SDS011;62116;43.582;1.470;2023-01-16T01:19:40;5.30;;;1.85;;
65583;SDS011;62116;43.582;1.470;2023-01-16T01:22:06;6.00;;;1.88;;
65583;SDS011;62116;43.582;1.470;2023-01-16T01:24:31;8.82;;;1.75;;
65583;SDS011;62116;43.582;1.470;2023-01-16T01:26:57;5.10;;;1.30;;
65583;SDS011;62116;43.582;1.470;2023-01-16T01:29:22;5.07;;;1.40;;
65583;SDS011;62116;43.582;1.470;2023-01-16T01:31:47;7.65;;;1.92;;
65583;SDS011;62116;43.582;1.470;2023-01-16T01:34:13;5.88;;;1.65;;
65583;SDS011;62116;43.582;1.470;2023-01-16T01:36:38;6.75;;;1.70;;
65583;SDS011;62116;43.582;1.470;2023-01-16T01:39:04;4.28;;;1.90;;
65583;SDS011;62116;43.582;1.470;2023-01-16T01:41:29;7.10;;;1.73;;
65583;SDS011;62116;43.582;1.470;2023-01-16T01:43:55;4.80;;;1.52;;
65583;SDS011;62116;43.582;1.470;2023-01-16T01:46:35;5.68;;;1.50;;
65583;SDS011;62116;43.582;1.470;2023-01-16T01:51:48;7.20;;;1.30;;
65583;SDS011;62116;43.582;1.470;2023-01-16T01:54:17;5.68;;;1.27;;
65583;SDS011;62116;43.582;1.470;2023-01-16T01:56:51;4.72;;;1.23;;
65583;SDS011;62116;43.582;1.470;2023-01-16T01:59:28;5.97;;;1.27;;
65583;SDS011;62116;43.582;1.470;2023-01-16T02:02:00;4.78;;;1.08;;
65583;SDS011;62116;43.582;1.470;2023-01-16T02:04:30;3.60;;;1.05;;
65583;SDS011;62116;43.582;1.470;2023-01-16T02:07:00;6.67;;;1.30;;
65583;SDS011;62116;43.582;1.470;2023-01-16T02:09:29;6.80;;;1.50;;
65583;SDS011;62116;43.582;1.470;2023-01-16T02:11:56;6.10;;;1.10;;
65583;SDS011;62116;43.582;1.470;2023-01-16T02:14:25;4.50;;;1.30;;
65583;SDS011;62116;43.582;1.470;2023-01-16T02:16:58;4.97;;;1.45;;
65583;SDS011;62116;43.582;1.470;2023-01-16T02:39:18;6.32;;;1.23;;
65583;SDS011;62116;43.582;1.470;2023-01-16T02:44:51;3.47;;;1.10;;
65583;SDS011;62116;43.582;1.470;2023-01-16T02:47:25;4.57;;;1.38;;
65583;SDS011;62116;43.582;1.470;2023-01-16T02:52:46;2.97;;;1.35;;
65583;SDS011;62116;43.582;1.470;2023-01-16T02:57:54;5.00;;;1.65;;
65583;SDS011;62116;43.582;1.470;2023-01-16T03:00:24;3.22;;;1.20;;
65583;SDS011;62116;43.582;1.470;2023-01-16T03:02:50;3.10;;;1.40;;
65583;SDS011;62116;43.582;1.470;2023-01-16T03:05:16;5.15;;;1.30;;
65583;SDS011;62116;43.582;1.470;2023-01-16T03:21:33;2.42;;;1.10;;
65583;SDS011;62116;43.582;1.470;2023-01-16T03:24:26;5.75;;;1.30;;
65583;SDS011;62116;43.582;1.470;2023-01-16T03:29:52;2.80;;;1.08;;
65583;SDS011;62116;43.582;1.470;2023-01-16T03:35:08;4.75;;;1.20;;
65583;SDS011;62116;43.582;1.470;2023-01-16T03:37:46;5.13;;;1.00;;
65583;SDS011;62116;43.582;1.470;2023-01-16T03:40:18;3.65;;;1.17;;
65583;SDS011;62116;43.582;1.470;2023-01-16T03:45:38;4.40;;;1.15;;
65583;SDS011;62116;43.582;1.470;2023-01-16T03:48:11;4.00;;;1.02;;
65583;SDS011;62116;43.582;1.470;2023-01-16T03:50:38;2.38;;;0.80;;
65583;SDS011;62116;43.582;1.470;2023-01-16T03:53:10;1.35;;;0.70;;
65583;SDS011;62116;43.582;1.470;2023-01-16T03:55:41;2.58;;;0.63;;
65583;SDS011;62116;43.582;1.470;2023-01-16T03:58:18;1.55;;;0.70;;
65583;SDS011;62116;43.582;1.470;2023-01-16T04:00:51;1.52;;;0.60;;
65583;SDS011;62116;43.582;1.470;2023-01-16T04:06:04;1.00;;;0.50;;
65583;SDS011;62116;43.582;1.470;2023-01-16T04:08:35;2.05;;;0.70;;
65583;SDS011;62116;43.582;1.470;2023-01-16T04:11:03;2.30;;;0.75;;
65583;SDS011;62116;43.582;1.470;2023-01-16T04:13:32;0.80;;;0.45;;
65583;SDS011;62116;43.582;1.470;2023-01-16T04:16:00;2.72;;;0.57;;
65583;SDS011;62116;43.582;1.470;2023-01-16T04:18:31;4.00;;;0.73;;
65583;SDS011;62116;43.582;1.470;2023-01-16T04:20:58;5.28;;;0.82;;
65583;SDS011;62116;43.582;1.470;2023-01-16T04:23:24;1.88;;;0.75;;
65583;SDS011;62116;43.582;1.470;2023-01-16T04:25:49;2.25;;;0.70;;
65583;SDS011;62116;43.582;1.470;2023-01-16T04:28:15;1.88;;;0.60;;
65583;SDS011;62116;43.582;1.470;2023-01-16T04:30:41;0.93;;;0.50;;
65583;SDS011;62116;43.582;1.470;2023-01-16T04:33:06;2.08;;;0.70;;
65583;SDS011;62116;43.582;1.470;2023-01-16T04:35:32;1.95;;;0.70;;
65583;SDS011;62116;43.582;1.470;2023-01-16T04:37:57;5.03;;;0.93;;
65583;SDS011;62116;43.582;1.470;2023-01-16T04:40:23;2.97;;;0.90;;
65583;SDS011;62116;43.582;1.470;2023-01-16T04:42:48;3.47;;;1.13;;
65583;SDS011;62116;43.582;1.470;2023-01-16T04:45:14;3.22;;;1.15;;
65583;SDS011;62116;43.582;1.470;2023-01-16T04:47:39;3.10;;;1.00;;
65583;SDS011;62116;43.582;1.470;2023-01-16T04:50:05;4.97;;;1.20;;
65583;SDS011;62116;43.582;1.470;2023-01-16T04:52:31;4.47;;;1.00;;
65583;SDS011;62116;43.582;1.470;2023-01-16T04:54:56;4.20;;;1.00;;
65583;SDS011;62116;43.582;1.470;2023-01-16T04:57:21;5.00;;;1.30;;
65583;SDS011;62116;43.582;1.470;2023-01-16T04:59:47;4.25;;;1.02;;
65583;SDS011;62116;43.582;1.470;2023-01-16T05:02:12;2.50;;;0.90;;
65583;SDS011;62116;43.582;1.470;2023-01-16T05:04:37;3.88;;;0.88;;
65583;SDS011;62116;43.582;1.470;2023-01-16T05:07:03;4.50;;;0.90;;
65583;SDS011;62116;43.582;1.470;2023-01-16T05:09:28;1.73;;;0.70;;
65583;SDS011;62116;43.582;1.470;2023-01-16T05:11:54;3.95;;;1.13;;
65583;SDS011;62116;43.582;1.470;2023-01-16T05:14:19;3.15;;;0.80;;
65583;SDS011;62116;43.582;1.470;2023-01-16T05:16:45;2.15;;;0.60;;
65583;SDS011;62116;43.582;1.470;2023-01-16T05:19:10;2.30;;;0.75;;
65583;SDS011;62116;43.582;1.470;2023-01-16T05:21:36;2.90;;;0.88;;
65583;SDS011;62116;43.582;1.470;2023-01-16T05:24:02;2.38;;;0.70;;
65583;SDS011;62116;43.582;1.470;2023-01-16T05:26:27;1.45;;;0.57;;
65583;SDS011;62116;43.582;1.470;2023-01-16T05:28:53;2.05;;;0.57;;
65583;SDS011;62116;43.582;1.470;2023-01-16T05:31:18;1.83;;;0.60;;
65583;SDS011;62116;43.582;1.470;2023-01-16T05:33:44;3.72;;;0.50;;
65583;SDS011;62116;43.582;1.470;2023-01-16T05:36:09;1.88;;;0.68;;
65583;SDS011;62116;43.582;1.470;2023-01-16T05:38:35;5.57;;;1.27;;
65583;SDS011;62116;43.582;1.470;2023-01-16T05:41:00;7.05;;;1.65;;
65583;SDS011;62116;43.582;1.470;2023-01-16T05:43:26;5.97;;;1.17;;
65583;SDS011;62116;43.582;1.470;2023-01-16T05:45:51;8.80;;;1.50;;
65583;SDS011;62116;43.582;1.470;2023-01-16T05:48:17;8.90;;;2.08;;
65583;SDS011;62116;43.582;1.470;2023-01-16T05:50:42;2.97;;;0.70;;
65583;SDS011;62116;43.582;1.470;2023-01-16T05:53:07;1.73;;;0.60;;
65583;SDS011;62116;43.582;1.470;2023-01-16T05:55:41;2.53;;;0.60;;
65583;SDS011;62116;43.582;1.470;2023-01-16T05:58:11;2.70;;;0.82;;
65583;SDS011;62116;43.582;1.470;2023-01-16T06:00:37;2.50;;;0.50;;
65583;SDS011;62116;43.582;1.470;2023-01-16T06:03:04;0.93;;;0.50;;
65583;SDS011;62116;43.582;1.470;2023-01-16T06:05:30;1.10;;;0.38;;
65583;SDS011;62116;43.582;1.470;2023-01-16T06:07:55;1.23;;;0.40;;
65583;SDS011;62116;43.582;1.470;2023-01-16T06:10:21;1.10;;;0.30;;
65583;SDS011;62116;43.582;1.470;2023-01-16T06:12:47;0.75;;;0.30;;
65583;SDS011;62116;43.582;1.470;2023-01-16T06:15:12;1.17;;;0.47;;
65583;SDS011;62116;43.582;1.470;2023-01-16T06:17:37;0.85;;;0.40;;
65583;SDS011;62116;43.582;1.470;2023-01-16T06:20:03;0.75;;;0.50;;
65583;SDS011;62116;43.582;1.470;2023-01-16T06:22:29;2.03;;;0.40;;
65583;SDS011;62116;43.582;1.470;2023-01-16T06:24:54;1.88;;;0.57;;
65583;SDS011;62116;43.582;1.470;2023-01-16T06:27:19;0.90;;;0.40;;
65583;SDS011;62116;43.582;1.470;2023-01-16T06:29:45;1.65;;;0.50;;
65583;SDS011;62116;43.582;1.470;2023-01-16T06:32:10;0.25;;;0.25;;
65583;SDS011;62116;43.582;1.470;2023-01-16T06:34:35;2.08;;;0.50;;
65583;SDS011;62116;43.582;1.470;2023-01-16T06:37:01;0.40;;;0.30;;
65583;SDS011;62116;43.582;1.470;2023-01-16T06:39:26;1.17;;;0.60;;
65583;SDS011;62116;43.582;1.470;2023-01-16T06:41:52;1.05;;;0.50;;
65583;SDS011;62116;43.582;1.470;2023-01-16T06:44:17;2.33;;;0.50;;
65583;SDS011;62116;43.582;1.470;2023-01-16T06:46:42;1.35;;;0.43;;
65583;SDS011;62116;43.582;1.470;2023-01-16T06:49:09;0.43;;;0.30;;
65583;SDS011;62116;43.582;1.470;2023-01-16T06:51:35;1.17;;;0.50;;
65583;SDS011;62116;43.582;1.470;2023-01-16T06:54:00;0.57;;;0.40;;
65583;SDS011;62116;43.582;1.470;2023-01-16T06:56:28;0.77;;;0.43;;
65583;SDS011;62116;43.582;1.470;2023-01-16T06:58:54;3.10;;;0.40;;
65583;SDS011;62116;43.582;1.470;2023-01-16T07:01:19;0.90;;;0.32;;
65583;SDS011;62116;43.582;1.470;2023-01-16T07:03:45;0.70;;;0.30;;
65583;SDS011;62116;43.582;1.470;2023-01-16T07:06:10;1.25;;;0.55;;
65583;SDS011;62116;43.582;1.470;2023-01-16T07:08:37;4.10;;;1.60;;
65583;SDS011;62116;43.582;1.470;2023-01-16T07:11:03;1.88;;;0.60;;
65583;SDS011;62116;43.582;1.470;2023-01-16T07:13:29;2.53;;;0.88;;
65583;SDS011;62116;43.582;1.470;2023-01-16T07:15:54;1.15;;;0.68;;
65583;SDS011;62116;43.582;1.470;2023-01-16T07:18:39;1.65;;;0.55;;
65583;SDS011;62116;43.582;1.470;2023-01-16T07:21:25;0.57;;;0.30;;
65583;SDS011;62116;43.582;1.470;2023-01-16T07:24:12;1.27;;;0.63;;
65583;SDS011;62116;43.582;1.470;2023-01-16T07:26:42;1.02;;;0.50;;
65583;SDS011;62116;43.582;1.470;2023-01-16T07:29:09;3.60;;;0.30;;
65583;SDS011;62116;43.582;1.470;2023-01-16T07:31:35;0.50;;;0.38;;
65583;SDS011;62116;43.582;1.470;2023-01-16T07:34:01;6.07;;;0.57;;
65583;SDS011;62116;43.582;1.470;2023-01-16T07:36:27;0.95;;;0.52;;
65583;SDS011;62116;43.582;1.470;2023-01-16T07:38:52;1.92;;;0.60;;
65583;SDS011;62116;43.582;1.470;2023-01-16T07:41:17;1.90;;;0.50;;
65583;SDS011;62116;43.582;1.470;2023-01-16T07:43:43;1.42;;;0.50;;
65583;SDS011;62116;43.582;1.470;2023-01-16T07:46:08;0.82;;;0.40;;
65583;SDS011;62116;43.582;1.470;2023-01-16T07:48:34;0.88;;;0.50;;
65583;SDS011;62116;43.582;1.470;2023-01-16T07:50:59;1.13;;;0.50;;
65583;SDS011;62116;43.582;1.470;2023-01-16T07:53:25;0.63;;;0.40;;
65583;SDS011;62116;43.582;1.470;2023-01-16T07:55:53;1.60;;;0.43;;
65583;SDS011;62116;43.582;1.470;2023-01-16T07:58:23;1.63;;;0.50;;
65583;SDS011;62116;43.582;1.470;2023-01-16T08:00:49;1.33;;;0.60;;
65583;SDS011;62116;43.582;1.470;2023-01-16T08:03:17;1.40;;;0.40;;
65583;SDS011;62116;43.582;1.470;2023-01-16T08:05:43;1.35;;;0.30;;
65583;SDS011;62116;43.582;1.470;2023-01-16T08:08:09;0.28;;;0.20;;
65583;SDS011;62116;43.582;1.470;2023-01-16T08:10:35;1.17;;;0.40;;
65583;SDS011;62116;43.582;1.470;2023-01-16T08:13:01;0.32;;;0.22;;
65583;SDS011;62116;43.582;1.470;2023-01-16T08:15:27;1.23;;;0.40;;
65583;SDS011;62116;43.582;1.470;2023-01-16T08:17:52;0.20;;;0.20;;
65583;SDS011;62116;43.582;1.470;2023-01-16T08:20:18;2.10;;;0.30;;
65583;SDS011;62116;43.582;1.470;2023-01-16T08:22:44;1.60;;;0.50;;
65583;SDS011;62116;43.582;1.470;2023-01-16T08:25:11;1.73;;;0.50;;
65583;SDS011;62116;43.582;1.470;2023-01-16T08:27:37;1.50;;;0.50;;
65583;SDS011;62116;43.582;1.470;2023-01-16T08:30:03;0.82;;;0.40;;
65583;SDS011;62116;43.582;1.470;2023-01-16T08:32:30;1.10;;;0.45;;
65583;SDS011;62116;43.582;1.470;2023-01-16T08:34:55;2.28;;;0.50;;
65583;SDS011;62116;43.582;1.470;2023-01-16T08:37:20;0.50;;;0.30;;
65583;SDS011;62116;43.582;1.470;2023-01-16T08:39:46;2.10;;;0.30;;
65583;SDS011;62116;43.582;1.470;2023-01-16T08:42:11;1.17;;;0.50;;
65583;SDS011;62116;43.582;1.470;2023-01-16T08:44:57;0.65;;;0.40;;
65583;SDS011;62116;43.582;1.470;2023-01-16T08:47:41;1.48;;;0.75;;
65583;SDS011;62116;43.582;1.470;2023-01-16T08:50:25;1.00;;;0.60;;
65583;SDS011;62116;43.582;1.470;2023-01-16T08:53:09;1.73;;;0.70;;
65583;SDS011;62116;43.582;1.470;2023-01-16T08:55:34;1.48;;;0.50;;
65583;SDS011;62116;43.582;1.470;2023-01-16T08:58:00;2.83;;;0.50;;
65583;SDS011;62116;43.582;1.470;2023-01-16T09:00:26;0.98;;;0.40;;
65583;SDS011;62116;43.582;1.470;2023-01-16T09:02:52;0.30;;;0.30;;
65583;SDS011;62116;43.582;1.470;2023-01-16T09:05:18;1.02;;;0.47;;
65583;SDS011;62116;43.582;1.470;2023-01-16T09:07:44;2.15;;;0.50;;
65583;SDS011;62116;43.582;1.470;2023-01-16T09:10:09;2.58;;;0.50;;
65583;SDS011;62116;43.582;1.470;2023-01-16T09:12:36;0.68;;;0.30;;
65583;SDS011;62116;43.582;1.470;2023-01-16T09:15:20;0.40;;;0.30;;
65583;SDS011;62116;43.582;1.470;2023-01-16T09:17:45;0.75;;;0.32;;
65583;SDS011;62116;43.582;1.470;2023-01-16T09:20:11;1.38;;;0.43;;
65583;SDS011;62116;43.582;1.470;2023-01-16T09:22:36;0.82;;;0.30;;
65583;SDS011;62116;43.582;1.470;2023-01-16T09:25:01;0.43;;;0.20;;
65583;SDS011;62116;43.582;1.470;2023-01-16T09:27:27;0.65;;;0.30;;
65583;SDS011;62116;43.582;1.470;2023-01-16T09:29:52;0.30;;;0.30;;
65583;SDS011;62116;43.582;1.470;2023-01-16T09:32:18;0.68;;;0.38;;
65583;SDS011;62116;43.582;1.470;2023-01-16T09:34:44;0.57;;;0.43;;
65583;SDS011;62116;43.582;1.470;2023-01-16T09:37:10;1.27;;;0.30;;
65583;SDS011;62116;43.582;1.470;2023-01-16T09:39:36;1.55;;;0.63;;
65583;SDS011;62116;43.582;1.470;2023-01-16T09:44:46;0.68;;;0.40;;
65583;SDS011;62116;43.582;1.470;2023-01-16T09:47:16;0.80;;;0.40;;
65583;SDS011;62116;43.582;1.470;2023-01-16T09:49:47;1.92;;;0.40;;
65583;SDS011;62116;43.582;1.470;2023-01-16T09:52:18;1.80;;;0.40;;
65583;SDS011;62116;43.582;1.470;2023-01-16T09:58:29;0.47;;;0.22;;
65583;SDS011;62116;43.582;1.470;2023-01-16T10:01:25;2.85;;;0.60;;
65583;SDS011;62116;43.582;1.470;2023-01-16T10:11:51;1.63;;;0.50;;
65583;SDS011;62116;43.582;1.470;2023-01-16T10:16:59;2.38;;;0.60;;
65583;SDS011;62116;43.582;1.470;2023-01-16T10:30:52;1.77;;;0.60;;
65583;SDS011;62116;43.582;1.470;2023-01-16T10:33:37;4.53;;;0.90;;
65583;SDS011;62116;43.582;1.470;2023-01-16T10:36:06;3.10;;;0.70;;
65583;SDS011;62116;43.582;1.470;2023-01-16T10:44:18;3.47;;;1.00;;
65583;SDS011;62116;43.582;1.470;2023-01-16T10:47:11;5.10;;;1.02;;
65583;SDS011;62116;43.582;1.470;2023-01-16T10:49:56;4.05;;;0.85;;
65583;SDS011;62116;43.582;1.470;2023-01-16T10:52:22;3.95;;;0.88;;
65583;SDS011;62116;43.582;1.470;2023-01-16T10:54:49;5.10;;;0.82;;
65583;SDS011;62116;43.582;1.470;2023-01-16T10:57:17;5.00;;;0.85;;
65583;SDS011;62116;43.582;1.470;2023-01-16T10:59:47;3.97;;;0.93;;
65583;SDS011;62116;43.582;1.470;2023-01-16T11:02:27;3.45;;;0.85;;
65583;SDS011;62116;43.582;1.470;2023-01-16T11:04:58;6.03;;;0.68;;
65583;SDS011;62116;43.582;1.470;2023-01-16T11:07:26;4.15;;;1.02;;
65583;SDS011;62116;43.582;1.470;2023-01-16T11:09:54;5.50;;;1.97;;
65583;SDS011;62116;43.582;1.470;2023-01-16T11:12:28;3.15;;;0.95;;
65583;SDS011;62116;43.582;1.470;2023-01-16T11:15:21;4.53;;;0.70;;
65583;SDS011;62116;43.582;1.470;2023-01-16T11:18:26;3.22;;;1.02;;
65583;SDS011;62116;43.582;1.470;2023-01-16T11:20:54;4.10;;;0.90;;
65583;SDS011;62116;43.582;1.470;2023-01-16T11:23:21;3.70;;;0.88;;
65583;SDS011;62116;43.582;1.470;2023-01-16T11:25:48;6.95;;;0.90;;
65583;SDS011;62116;43.582;1.470;2023-01-16T11:28:26;5.18;;;0.90;;
65583;SDS011;62116;43.582;1.470;2023-01-16T11:30:55;2.88;;;0.80;;
65583;SDS011;62116;43.582;1.470;2023-01-16T11:35:56;4.30;;;0.98;;
65583;SDS011;62116;43.582;1.470;2023-01-16T11:40:50;7.50;;;1.00;;
65583;SDS011;62116;43.582;1.470;2023-01-16T11:43:22;3.83;;;0.75;;
65583;SDS011;62116;43.582;1.470;2023-01-16T11:46:22;8.07;;;1.20;;
65583;SDS011;62116;43.582;1.470;2023-01-16T11:48:54;4.72;;;1.08;;
65583;SDS011;62116;43.582;1.470;2023-01-16T11:51:26;8.15;;;1.20;;
65583;SDS011;62116;43.582;1.470;2023-01-16T11:53:54;7.55;;;1.30;;
65583;SDS011;62116;43.582;1.470;2023-01-16T12:07:51;7.20;;;1.33;;
65583;SDS011;62116;43.582;1.470;2023-01-16T12:25:00;3.28;;;0.90;;
65583;SDS011;62116;43.582;1.470;2023-01-16T12:33:29;6.70;;;1.50;;
65583;SDS011;62116;43.582;1.470;2023-01-16T12:38:36;4.22;;;0.88;;
65583;SDS011;62116;43.582;1.470;2023-01-16T12:41:17;4.82;;;1.10;;
65583;SDS011;62116;43.582;1.470;2023-01-16T12:44:16;4.00;;;1.10;;
65583;SDS011;62116;43.582;1.470;2023-01-16T13:00:23;3.50;;;1.10;;
65583;SDS011;62116;43.582;1.470;2023-01-16T13:05:40;3.53;;;0.73;;
65583;SDS011;62116;43.582;1.470;2023-01-16T13:11:12;4.97;;;1.13;;
65583;SDS011;62116;43.582;1.470;2023-01-16T13:14:03;4.38;;;1.15;;
65583;SDS011;62116;43.582;1.470;2023-01-16T13:16:40;3.90;;;0.85;;
65583;SDS011;62116;43.582;1.470;2023-01-16T13:19:23;2.97;;;0.80;;
65583;SDS011;62116;43.582;1.470;2023-01-16T13:21:54;3.60;;;0.88;;
65583;SDS011;62116;43.582;1.470;2023-01-16T13:24:23;2.55;;;0.65;;
65583;SDS011;62116;43.582;1.470;2023-01-16T13:26:56;2.92;;;0.82;;
65583;SDS011;62116;43.582;1.470;2023-01-16T13:29:36;3.33;;;1.00;;
65583;SDS011;62116;43.582;1.470;2023-01-16T13:34:45;4.75;;;1.50;;
65583;SDS011;62116;43.582;1.470;2023-01-16T13:37:27;4.32;;;1.00;;
65583;SDS011;62116;43.582;1.470;2023-01-16T13:43:05;4.90;;;1.10;;
65583;SDS011;62116;43.582;1.470;2023-01-16T13:45:53;5.15;;;1.10;;
65583;SDS011;62116;43.582;1.470;2023-01-16T13:48:21;2.85;;;0.93;;
65583;SDS011;62116;43.582;1.470;2023-01-16T13:50:52;6.28;;;1.35;;
65583;SDS011;62116;43.582;1.470;2023-01-16T13:53:26;4.38;;;1.10;;
65583;SDS011;62116;43.582;1.470;2023-01-16T13:56:02;6.55;;;1.27;;
65583;SDS011;62116;43.582;1.470;2023-01-16T13:58:30;4.07;;;0.90;;
65583;SDS011;62116;43.582;1.470;2023-01-16T14:00:57;4.38;;;1.02;;
65583;SDS011;62116;43.582;1.470;2023-01-16T14:03:28;7.28;;;1.17;;
65583;SDS011;62116;43.582;1.470;2023-01-16T14:08:51;5.95;;;1.35;;
65583;SDS011;62116;43.582;1.470;2023-01-16T14:17:13;5.68;;;1.08;;
65583;SDS011;62116;43.582;1.470;2023-01-16T14:19:56;9.70;;;1.90;;
65583;SDS011;62116;43.582;1.470;2023-01-16T14:22:25;6.03;;;1.67;;
65583;SDS011;62116;43.582;1.470;2023-01-16T14:25:01;5.85;;;1.40;;
65583;SDS011;62116;43.582;1.470;2023-01-16T14:27:32;8.17;;;1.20;;
65583;SDS011;62116;43.582;1.470;2023-01-16T14:30:04;7.72;;;1.13;;
65583;SDS011;62116;43.582;1.470;2023-01-16T14:32:42;6.25;;;1.50;;
65583;SDS011;62116;43.582;1.470;2023-01-16T14:35:17;7.65;;;1.42;;
65583;SDS011;62116;43.582;1.470;2023-01-16T14:38:05;7.40;;;1.33;;
65583;SDS011;62116;43.582;1.470;2023-01-16T14:40:35;4.90;;;1.25;;
65583;SDS011;62116;43.582;1.470;2023-01-16T14:43:27;7.03;;;1.27;;
65583;SDS011;62116;43.582;1.470;2023-01-16T14:56:21;6.43;;;1.33;;
65583;SDS011;62116;43.582;1.470;2023-01-16T14:58:15;5.45;;;1.40;;
65583;SDS011;62116;43.582;1.470;2023-01-16T15:00:48;6.13;;;1.30;;
65583;SDS011;62116;43.582;1.470;2023-01-16T15:03:20;6.20;;;1.23;;
65583;SDS011;62116;43.582;1.470;2023-01-16T15:05:55;10.38;;;1.17;;
65583;SDS011;62116;43.582;1.470;2023-01-16T15:10:57;6.90;;;2.00;;
65583;SDS011;62116;43.582;1.470;2023-01-16T15:13:53;7.85;;;1.60;;
65583;SDS011;62116;43.582;1.470;2023-01-16T15:16:46;7.03;;;1.40;;
65583;SDS011;62116;43.582;1.470;2023-01-16T15:19:30;5.35;;;1.20;;
65583;SDS011;62116;43.582;1.470;2023-01-16T15:22:16;5.53;;;1.40;;
65583;SDS011;62116;43.582;1.470;2023-01-16T15:25:03;4.80;;;1.30;;
65583;SDS011;62116;43.582;1.470;2023-01-16T15:27:39;6.38;;;1.80;;
65583;SDS011;62116;43.582;1.470;2023-01-16T15:30:07;4.68;;;1.58;;
65583;SDS011;62116;43.582;1.470;2023-01-16T15:32:55;6.20;;;1.33;;
65583;SDS011;62116;43.582;1.470;2023-01-16T15:35:53;4.18;;;1.25;;
65583;SDS011;62116;43.582;1.470;2023-01-16T15:38:20;6.85;;;1.75;;
65583;SDS011;62116;43.582;1.470;2023-01-16T15:40:49;2.50;;;1.00;;
65583;SDS011;62116;43.582;1.470;2023-01-16T15:43:16;3.22;;;1.27;;
65583;SDS011;62116;43.582;1.470;2023-01-16T15:46:15;3.83;;;1.50;;
65583;SDS011;62116;43.582;1.470;2023-01-16T15:51:35;7.50;;;2.65;;
65583;SDS011;62116;43.582;1.470;2023-01-16T15:54:01;7.22;;;2.47;;
65583;SDS011;62116;43.582;1.470;2023-01-16T15:56:29;6.15;;;2.65;;
65583;SDS011;62116;43.582;1.470;2023-01-16T15:59:00;4.30;;;2.00;;
65583;SDS011;62116;43.582;1.470;2023-01-16T16:01:26;5.20;;;1.92;;
65583;SDS011;62116;43.582;1.470;2023-01-16T16:03:54;5.60;;;2.25;;
65583;SDS011;62116;43.582;1.470;2023-01-16T16:06:21;7.03;;;2.90;;
65583;SDS011;62116;43.582;1.470;2023-01-16T16:08:49;10.02;;;3.30;;
65583;SDS011;62116;43.582;1.470;2023-01-16T16:11:24;6.22;;;2.20;;
65583;SDS011;62116;43.582;1.470;2023-01-16T16:14:12;4.53;;;2.05;;
65583;SDS011;62116;43.582;1.470;2023-01-16T16:17:21;5.75;;;1.80;;
65583;SDS011;62116;43.582;1.470;2023-01-16T16:25:53;4.18;;;1.63;;
65583;SDS011;62116;43.582;1.470;2023-01-16T16:31:00;5.55;;;1.40;;
65583;SDS011;62116;43.582;1.470;2023-01-16T16:33:54;5.20;;;1.38;;
65583;SDS011;62116;43.582;1.470;2023-01-16T16:36:23;6.85;;;1.60;;
65583;SDS011;62116;43.582;1.470;2023-01-16T16:38:49;5.97;;;1.25;;
65583;SDS011;62116;43.582;1.470;2023-01-16T16:47:35;5.07;;;1.70;;
65583;SDS011;62116;43.582;1.470;2023-01-16T16:58:01;5.97;;;1.60;;
65583;SDS011;62116;43.582;1.470;2023-01-16T17:00:29;5.32;;;1.70;;
65583;SDS011;62116;43.582;1.470;2023-01-16T17:03:01;6.03;;;1.63;;
65583;SDS011;62116;43.582;1.470;2023-01-16T17:07:56;9.70;;;2.00;;
65583;SDS011;62116;43.582;1.470;2023-01-16T17:10:22;7.65;;;2.05;;
65583;SDS011;62116;43.582;1.470;2023-01-16T17:12:47;6.85;;;2.00;;
65583;SDS011;62116;43.582;1.470;2023-01-16T17:15:13;7.15;;;2.00;;
65583;SDS011;62116;43.582;1.470;2023-01-16T17:17:39;6.10;;;2.15;;
65583;SDS011;62116;43.582;1.470;2023-01-16T17:20:16;7.18;;;2.50;;
65583;SDS011;62116;43.582;1.470;2023-01-16T17:22:43;9.02;;;2.72;;
65583;SDS011;62116;43.582;1.470;2023-01-16T17:25:10;6.65;;;2.35;;
65583;SDS011;62116;43.582;1.470;2023-01-16T17:27:49;5.80;;;1.73;;
65583;SDS011;62116;43.582;1.470;2023-01-16T17:30:16;5.50;;;2.47;;
65583;SDS011;62116;43.582;1.470;2023-01-16T17:32:43;4.80;;;2.10;;
65583;SDS011;62116;43.582;1.470;2023-01-16T17:35:14;9.52;;;3.75;;
65583;SDS011;62116;43.582;1.470;2023-01-16T17:37:40;5.38;;;2.50;;
65583;SDS011;62116;43.582;1.470;2023-01-16T17:40:06;4.63;;;1.67;;
65583;SDS011;62116;43.582;1.470;2023-01-16T17:42:32;4.35;;;1.30;;
65583;SDS011;62116;43.582;1.470;2023-01-16T17:45:23;3.65;;;1.35;;
65583;SDS011;62116;43.582;1.470;2023-01-16T17:48:12;6.10;;;1.85;;
65583;SDS011;62116;43.582;1.470;2023-01-16T17:50:38;5.22;;;1.80;;
65583;SDS011;62116;43.582;1.470;2023-01-16T17:53:03;6.40;;;1.70;;
65583;SDS011;62116;43.582;1.470;2023-01-16T17:55:29;3.45;;;1.30;;
65583;SDS011;62116;43.582;1.470;2023-01-16T17:58:12;4.22;;;1.42;;
65583;SDS011;62116;43.582;1.470;2023-01-16T18:00:38;6.35;;;1.90;;
65583;SDS011;62116;43.582;1.470;2023-01-16T18:03:05;5.75;;;1.60;;
65583;SDS011;62116;43.582;1.470;2023-01-16T18:05:31;7.63;;;2.60;;
65583;SDS011;62116;43.582;1.470;2023-01-16T18:07:57;5.43;;;1.67;;
65583;SDS011;62116;43.582;1.470;2023-01-16T18:10:22;5.75;;;1.70;;
65583;SDS011;62116;43.582;1.470;2023-01-16T18:12:48;5.03;;;1.90;;
65583;SDS011;62116;43.582;1.470;2023-01-16T18:15:32;7.28;;;1.92;;
65583;SDS011;62116;43.582;1.470;2023-01-16T18:18:16;8.70;;;2.75;;
65583;SDS011;62116;43.582;1.470;2023-01-16T18:20:41;6.47;;;1.60;;
65583;SDS011;62116;43.582;1.470;2023-01-16T18:23:06;4.63;;;1.50;;
65583;SDS011;62116;43.582;1.470;2023-01-16T18:25:32;7.45;;;1.80;;
65583;SDS011;62116;43.582;1.470;2023-01-16T18:27:57;6.18;;;1.65;;
65583;SDS011;62116;43.582;1.470;2023-01-16T18:30:22;6.72;;;2.15;;